createdAt,value
2018-04-18T00:00:25.408Z,10.40
2018-04-18T00:02:53.253Z,10.30
2018-04-18T00:05:20.768Z,10.30
2018-04-18T00:07:49.041Z,10.20
2018-04-18T00:10:17.316Z,10.20
2018-04-18T00:12:45.563Z,10.20
2018-04-18T00:15:13.302Z,10.20
2018-04-18T00:17:40.799Z,10.10
2018-04-18T00:20:08.625Z,10.10
2018-04-18T00:22:36.383Z,10.10
2018-04-18T00:25:03.899Z,10.10
2018-04-18T00:27:32.175Z,10.10
2018-04-18T00:30:00.420Z,10.10
2018-04-18T00:32:27.921Z,10.10
2018-04-18T00:34:55.407Z,10.10
2018-04-18T00:37:22.924Z,9.90
2018-04-18T00:39:51.200Z,9.80
2018-04-18T00:42:19.724Z,9.80
2018-04-18T00:44:47.240Z,9.70
2018-04-18T00:47:15.517Z,9.70
2018-04-18T00:49:43.751Z,9.70
2018-04-18T00:52:11.364Z,9.70
2018-04-18T00:54:39.876Z,9.60
2018-04-18T00:57:07.387Z,9.60
2018-04-18T00:59:35.629Z,9.60
2018-04-18T01:02:03.099Z,9.60
2018-04-18T01:04:30.600Z,9.60
2018-04-18T01:06:58.136Z,9.50
2018-04-18T01:09:26.415Z,9.50
2018-04-18T01:11:54.656Z,9.40
2018-04-18T01:14:22.132Z,9.40
2018-04-18T01:16:50.428Z,9.30
2018-04-18T01:19:18.664Z,9.20
2018-04-18T01:21:46.193Z,9.20
2018-04-18T01:24:13.960Z,9.20
2018-04-18T01:26:41.477Z,9.00
2018-04-18T01:29:09.936Z,9.00
2018-04-18T01:31:37.413Z,9.00
2018-04-18T01:34:05.676Z,9.00
2018-04-18T01:36:33.369Z,9.00
2018-04-18T01:39:00.866Z,9.00
2018-04-18T01:41:28.339Z,9.00
2018-04-18T01:43:55.819Z,9.00
2018-04-18T01:46:24.780Z,9.10
2018-04-18T02:02:11.799Z,8.70
2018-04-18T02:04:40.794Z,8.60
2018-04-18T02:07:08.620Z,8.60
2018-04-18T02:09:36.120Z,9.30
2018-04-18T02:12:03.936Z,8.60
2018-04-18T02:14:31.452Z,8.70
2018-04-18T02:16:59.696Z,8.80
2018-04-18T02:19:27.395Z,8.70
2018-04-18T02:21:55.915Z,8.70
2018-04-18T02:24:23.432Z,8.70
2018-04-18T02:26:51.693Z,8.70
2018-04-18T02:29:19.178Z,8.60
2018-04-18T02:31:46.811Z,8.60
2018-04-18T02:34:14.303Z,8.60
2018-04-18T02:36:41.776Z,8.50
2018-04-18T02:39:09.545Z,8.50
2018-04-18T02:41:37.016Z,8.50
2018-04-18T02:44:04.488Z,8.50
2018-04-18T02:46:32.067Z,8.50
2018-04-18T02:48:59.543Z,8.40
2018-04-18T02:51:27.337Z,8.50
2018-04-18T02:53:54.836Z,8.40
2018-04-18T02:56:23.080Z,8.20
2018-04-18T02:58:50.576Z,8.20
2018-04-18T03:01:18.051Z,8.20
2018-04-18T03:03:46.312Z,8.00
2018-04-18T03:06:14.844Z,7.90
2018-04-18T03:08:42.884Z,7.90
2018-04-18T03:11:10.838Z,7.90
2018-04-18T03:13:39.084Z,8.00
2018-04-18T03:16:06.562Z,7.90
2018-04-18T03:18:34.127Z,8.10
2018-04-18T03:21:02.374Z,7.90
2018-04-18T03:23:29.867Z,7.90
2018-04-18T03:25:58.108Z,7.90
2018-04-18T03:28:25.584Z,7.80
2018-04-18T03:30:53.867Z,7.80
2018-04-18T03:33:22.108Z,7.90
2018-04-18T03:35:49.600Z,7.80
2018-04-18T03:38:17.843Z,7.80
2018-04-18T03:40:45.356Z,7.80
2018-04-18T03:43:13.592Z,7.90
2018-04-18T03:45:41.317Z,7.80
2018-04-18T03:48:08.814Z,7.80
2018-04-18T03:50:37.797Z,7.80
2018-04-18T03:53:05.275Z,7.80
2018-04-18T03:55:33.538Z,7.50
2018-04-18T03:58:01.016Z,7.50
2018-04-18T04:00:29.272Z,7.50
2018-04-18T04:02:56.744Z,7.50
2018-04-18T04:05:25.267Z,7.50
2018-04-18T04:07:52.747Z,7.50
2018-04-18T04:10:20.224Z,7.60
2018-04-18T04:12:47.799Z,7.60
2018-04-18T04:15:16.048Z,7.60
2018-04-18T04:17:55.577Z,7.60
2018-04-18T04:20:35.067Z,7.60
2018-04-18T04:23:14.529Z,7.70
2018-04-18T04:25:42.047Z,7.60
2018-04-18T04:28:10.579Z,7.50
2018-04-18T04:30:38.056Z,7.50
2018-04-18T04:33:06.029Z,7.50
2018-04-18T04:35:33.503Z,7.60
2018-04-18T04:38:01.728Z,7.60
2018-04-18T04:40:29.496Z,7.70
2018-04-18T04:42:57.260Z,7.70
2018-04-18T04:45:24.776Z,7.60
2018-04-18T04:47:53.035Z,7.80
2018-04-18T04:50:21.276Z,8.20
2018-04-18T04:52:48.748Z,8.00
2018-04-18T04:55:17.405Z,8.00
2018-04-18T04:57:44.876Z,8.10
2018-04-18T05:00:12.361Z,8.10
2018-04-18T05:02:39.856Z,8.10
2018-04-18T05:05:07.396Z,8.00
2018-04-18T05:07:35.636Z,8.10
2018-04-18T05:10:03.128Z,8.00
2018-04-18T05:12:31.376Z,10.80
2018-04-18T05:14:58.863Z,10.70
2018-04-18T05:17:27.123Z,13.20
2018-04-18T05:19:55.360Z,14.10
2018-04-18T05:22:23.135Z,14.10
2018-04-18T05:24:50.640Z,15.10
2018-04-18T05:27:18.884Z,16.30
2018-04-18T05:29:46.359Z,16.20
2018-04-18T05:32:13.860Z,16.20
2018-04-18T05:34:41.336Z,17.30
2018-04-18T05:37:08.812Z,18.20
2018-04-18T05:39:36.304Z,18.60
2018-04-18T05:42:04.540Z,20.10
2018-04-18T05:44:32.279Z,20.00
2018-04-18T05:46:59.775Z,20.70
2018-04-18T05:49:27.256Z,21.20
2018-04-18T05:51:55.491Z,20.90
2018-04-18T05:54:22.989Z,20.80
2018-04-18T05:56:51.234Z,20.70
2018-04-18T05:59:18.712Z,20.70
2018-04-18T06:01:46.492Z,21.00
2018-04-18T06:04:14.736Z,21.30
2018-04-18T06:06:42.209Z,21.20
2018-04-18T06:09:09.708Z,21.40
2018-04-18T06:11:37.182Z,21.90
2018-04-18T06:14:04.655Z,22.80
2018-04-18T06:16:33.286Z,23.20
2018-04-18T06:19:00.763Z,23.20
2018-04-18T06:21:28.232Z,23.50
2018-04-18T06:23:55.723Z,23.80
2018-04-18T06:26:23.448Z,24.40
2018-04-18T06:28:50.948Z,25.00
2018-04-18T06:31:18.528Z,25.10
2018-04-18T06:33:46.769Z,25.70
2018-04-18T06:36:14.244Z,25.70
2018-04-18T06:38:41.808Z,26.00
2018-04-18T06:41:09.280Z,26.00
2018-04-18T06:43:37.544Z,26.50
2018-04-18T06:46:06.068Z,27.00
2018-04-18T06:48:33.832Z,26.90
2018-04-18T06:51:01.595Z,27.20
2018-04-18T06:53:29.088Z,27.60
2018-04-18T06:55:56.564Z,27.30
2018-04-18T06:58:24.036Z,27.40
2018-04-18T07:00:52.308Z,27.30
2018-04-18T07:03:20.862Z,27.60
2018-04-18T07:05:48.592Z,27.50
2018-04-18T07:08:16.352Z,27.60
2018-04-18T07:10:43.907Z,27.90
2018-04-18T07:13:11.380Z,28.30
2018-04-18T07:15:38.871Z,28.70
2018-04-18T07:18:06.441Z,29.00
2018-04-18T07:20:34.683Z,28.70
2018-04-18T07:23:02.186Z,28.60
2018-04-18T07:25:30.448Z,28.80
2018-04-18T07:27:58.684Z,29.00
2018-04-18T07:30:26.432Z,28.40
2018-04-18T07:32:53.907Z,29.30
2018-04-18T07:35:21.376Z,29.10
2018-04-18T07:37:48.867Z,28.70
2018-04-18T07:40:17.388Z,29.50
2018-04-18T07:42:44.865Z,29.50
2018-04-18T07:45:12.360Z,30.00
2018-04-18T07:47:40.884Z,29.90
2018-04-18T07:50:08.648Z,29.80
2018-04-18T07:52:36.148Z,29.80
2018-04-18T07:55:03.624Z,30.30
2018-04-18T07:57:31.871Z,30.40
2018-04-18T07:59:59.367Z,30.40
2018-04-18T08:02:26.845Z,30.70
2018-04-18T08:04:54.323Z,30.10
2018-04-18T08:07:21.816Z,30.70
2018-04-18T08:09:50.057Z,30.20
2018-04-18T08:12:17.804Z,30.20
2018-04-18T08:14:45.357Z,30.20
2018-04-18T08:17:13.131Z,30.60
2018-04-18T08:19:40.603Z,30.60
2018-04-18T08:22:08.136Z,30.80
2018-04-18T08:24:35.607Z,31.90
2018-04-18T08:27:03.111Z,30.80
2018-04-18T08:29:31.641Z,31.20
2018-04-18T08:31:59.405Z,31.20
2018-04-18T08:34:26.875Z,31.20
2018-04-18T08:36:54.479Z,31.00
2018-04-18T08:39:22.720Z,25.20
2018-04-18T08:41:50.460Z,29.90
2018-04-18T08:44:17.960Z,30.60
2018-04-18T08:46:45.483Z,29.80
2018-04-18T08:49:12.959Z,29.50
2018-04-18T08:51:40.460Z,29.40
2018-04-18T08:54:08.973Z,29.20
2018-04-18T08:56:36.476Z,29.20
2018-04-18T08:59:04.294Z,28.40
2018-04-18T09:01:31.767Z,28.00
2018-04-18T09:03:59.239Z,28.30
2018-04-18T09:06:26.736Z,27.00
2018-04-18T09:08:54.214Z,26.50
2018-04-18T09:11:21.687Z,25.40
2018-04-18T09:13:49.179Z,24.90
2018-04-18T09:16:16.751Z,24.90
2018-04-18T09:18:45.024Z,25.10
2018-04-18T09:21:13.284Z,24.80
2018-04-18T09:23:40.864Z,24.80
2018-04-18T09:26:09.387Z,24.60
2018-04-18T09:28:36.900Z,24.50
2018-04-18T09:31:05.180Z,24.60
2018-04-18T09:33:33.420Z,24.70
2018-04-18T09:36:01.008Z,24.70
2018-04-18T09:38:28.820Z,24.70
2018-04-18T09:40:56.311Z,24.70
2018-04-18T09:43:23.808Z,25.00
2018-04-18T09:45:51.603Z,25.10
2018-04-18T09:48:19.080Z,25.00
2018-04-18T09:50:46.577Z,25.20
2018-04-18T09:53:14.844Z,24.90
2018-04-18T09:55:43.120Z,25.10
2018-04-18T09:58:11.651Z,25.10
2018-04-18T10:00:44.892Z,25.00
2018-04-18T10:03:15.119Z,24.50
2018-04-18T10:05:43.360Z,25.10
2018-04-18T10:08:10.832Z,25.10
2018-04-18T10:10:38.331Z,25.50
2018-04-18T10:13:05.801Z,25.30
2018-04-18T10:15:33.273Z,25.50
2018-04-18T10:18:00.763Z,25.20
2018-04-18T10:20:28.235Z,24.90
2018-04-18T10:22:56.500Z,25.50
2018-04-18T10:25:24.216Z,25.50
2018-04-18T10:27:51.979Z,26.00
2018-04-18T10:30:19.451Z,26.30
2018-04-18T10:32:46.943Z,25.40
2018-04-18T10:35:14.416Z,25.70
2018-04-18T10:37:42.659Z,26.30
2018-04-18T10:40:10.155Z,26.70
2018-04-18T10:42:38.667Z,26.50
2018-04-18T10:45:06.180Z,26.50
2018-04-18T10:47:34.472Z,26.10
2018-04-18T10:50:03.461Z,26.20
2018-04-18T10:52:31.699Z,26.60
2018-04-18T10:54:59.431Z,26.60
2018-04-18T10:57:26.911Z,26.60
2018-04-18T10:59:54.384Z,27.20
2018-04-18T11:02:21.875Z,27.10
2018-04-18T11:04:50.112Z,26.90
2018-04-18T11:07:17.588Z,26.90
2018-04-18T11:09:45.906Z,27.20
2018-04-18T11:12:13.432Z,27.20
2018-04-18T11:14:41.684Z,27.70
2018-04-18T11:17:09.181Z,27.70
2018-04-18T11:19:36.654Z,27.10
2018-04-18T11:22:04.176Z,27.00
2018-04-18T11:24:32.448Z,27.90
2018-04-18T11:27:00.750Z,27.50
2018-04-18T11:29:28.176Z,27.40
2018-04-18T11:31:56.435Z,26.70
2018-04-18T11:34:24.132Z,26.70
2018-04-18T11:36:52.427Z,26.50
2018-04-18T11:39:19.888Z,27.40
2018-04-18T11:41:47.363Z,26.10
2018-04-18T11:44:14.851Z,26.80
2018-04-18T11:46:42.344Z,27.20
2018-04-18T11:49:09.817Z,27.30
2018-04-18T11:51:37.297Z,27.30
2018-04-18T11:54:05.048Z,26.80
2018-04-18T11:56:32.528Z,27.00
2018-04-18T11:59:00.278Z,27.60
2018-04-18T12:01:27.781Z,28.00
2018-04-18T12:03:56.027Z,26.90
2018-04-18T12:06:23.511Z,27.40
2018-04-18T12:08:51.792Z,27.50
2018-04-18T12:11:20.035Z,27.20
2018-04-18T12:13:47.508Z,27.20
2018-04-18T12:16:15.772Z,27.20
2018-04-18T12:18:43.504Z,27.40
2018-04-18T12:21:10.976Z,27.50
2018-04-18T12:23:38.475Z,27.30
2018-04-18T12:26:06.724Z,27.60
2018-04-18T12:28:34.207Z,27.60
2018-04-18T12:31:02.733Z,27.40
2018-04-18T12:33:30.204Z,27.40
2018-04-18T12:35:57.955Z,26.90
2018-04-18T12:38:25.464Z,26.50
2018-04-18T12:40:53.179Z,27.00
2018-04-18T12:43:20.657Z,27.60
2018-04-18T12:45:48.400Z,27.40
2018-04-18T12:48:15.875Z,27.20
2018-04-18T12:50:43.347Z,27.80
2018-04-18T12:53:10.840Z,27.40
2018-04-18T12:55:38.382Z,26.40
2018-04-18T12:58:06.655Z,27.30
2018-04-18T13:00:34.919Z,26.80
2018-04-18T13:03:03.212Z,27.20
2018-04-18T13:05:31.456Z,27.00
2018-04-18T13:07:58.953Z,27.00
2018-04-18T13:10:27.196Z,26.50
2018-04-18T13:12:54.672Z,26.50
2018-04-18T13:15:22.933Z,25.70
2018-04-18T13:17:50.408Z,25.60
2018-04-18T13:20:18.932Z,25.70
2018-04-18T13:22:46.668Z,25.70
2018-04-18T13:25:14.251Z,25.50
2018-04-18T13:27:42.015Z,25.30
2018-04-18T13:30:09.516Z,25.30
2018-04-18T13:32:36.991Z,25.20
2018-04-18T13:35:05.228Z,25.00
2018-04-18T13:37:32.727Z,25.00
2018-04-18T13:40:00.968Z,24.90
2018-04-18T13:42:28.702Z,24.90
2018-04-18T13:44:56.191Z,24.80
2018-04-18T13:47:23.664Z,24.90
2018-04-18T13:49:51.380Z,24.90
2018-04-18T13:52:18.892Z,24.70
2018-04-18T13:54:47.140Z,25.10
2018-04-18T13:57:14.619Z,25.10
2018-04-18T13:59:42.116Z,25.20
2018-04-18T14:02:09.607Z,25.00
2018-04-18T14:04:37.081Z,24.90
2018-04-18T14:07:04.655Z,24.70
2018-04-18T14:09:32.936Z,24.70
2018-04-18T14:12:01.176Z,24.80
2018-04-18T14:14:28.668Z,24.80
2018-04-18T14:16:56.912Z,24.80
2018-04-18T14:19:24.385Z,24.80
2018-04-18T14:21:52.663Z,24.90
2018-04-18T14:24:20.236Z,24.90
2018-04-18T14:26:47.725Z,24.90
2018-04-18T14:29:15.219Z,25.10
2018-04-18T14:31:42.959Z,25.20
2018-04-18T14:34:10.720Z,25.10
2018-04-18T14:36:38.212Z,25.00
2018-04-18T14:39:05.705Z,25.00
2018-04-18T14:41:33.250Z,25.10
2018-04-18T14:44:01.516Z,24.90
2018-04-18T14:46:29.008Z,24.90
2018-04-18T14:48:56.789Z,24.80
2018-04-18T14:51:24.336Z,24.80
2018-04-18T14:53:51.809Z,24.70
2018-04-18T14:56:19.349Z,24.70
2018-04-18T14:58:46.876Z,24.30
2018-04-18T15:01:15.152Z,24.90
2018-04-18T15:03:43.387Z,24.90
2018-04-18T15:06:10.883Z,24.80
2018-04-18T15:08:39.128Z,24.80
2018-04-18T15:11:06.606Z,24.80
2018-04-18T15:13:34.103Z,24.90
2018-04-18T15:16:01.632Z,24.80
2018-04-18T15:18:29.877Z,24.60
2018-04-18T15:20:57.377Z,24.60
2018-04-18T15:23:25.891Z,24.80
2018-04-18T15:25:53.365Z,24.70
2018-04-18T15:28:20.869Z,24.70
2018-04-18T15:30:49.112Z,24.70
2018-04-18T15:33:16.844Z,24.60
2018-04-18T15:35:44.340Z,24.70
2018-04-18T15:38:11.816Z,24.40
2018-04-18T15:40:40.091Z,24.30
2018-04-18T15:43:07.586Z,24.30
2018-04-18T15:45:35.065Z,24.30
2018-04-18T15:48:02.545Z,24.50
2018-04-18T15:50:30.063Z,24.60
2018-04-18T15:52:57.549Z,24.60
2018-04-18T15:55:25.024Z,24.60
2018-04-18T15:57:52.523Z,24.50
2018-04-18T16:00:20.002Z,24.50
2018-04-18T16:02:47.473Z,24.50
2018-04-18T16:05:14.975Z,24.40
2018-04-18T16:07:43.221Z,24.20
2018-04-18T16:10:10.800Z,24.20
2018-04-18T16:12:39.060Z,24.20
2018-04-18T16:15:06.532Z,24.20
2018-04-18T16:17:34.776Z,24.20
2018-04-18T16:20:02.302Z,24.20
2018-04-18T16:22:29.827Z,24.20
2018-04-18T16:24:58.071Z,24.00
2018-04-18T16:27:25.803Z,23.70
2018-04-18T16:29:53.572Z,24.00
2018-04-18T16:32:21.047Z,23.90
2018-04-18T16:34:48.560Z,23.90
2018-04-18T16:37:16.349Z,23.90
2018-04-18T16:39:43.828Z,23.80
2018-04-18T16:42:11.424Z,23.80
2018-04-18T16:44:39.667Z,23.70
2018-04-18T16:47:07.155Z,23.70
2018-04-18T16:49:35.411Z,23.70
2018-04-18T16:52:02.884Z,23.60
2018-04-18T16:54:31.123Z,23.60
2018-04-18T16:56:58.771Z,22.60
2018-04-18T16:59:26.248Z,23.60
2018-04-18T17:01:53.724Z,23.60
2018-04-18T17:04:21.304Z,23.50
2018-04-18T17:06:49.626Z,23.50
2018-04-18T17:09:17.893Z,23.40
2018-04-18T17:11:46.116Z,23.40
2018-04-18T17:14:13.592Z,23.30
2018-04-18T17:16:41.832Z,23.30
2018-04-18T17:19:09.331Z,23.30
2018-04-18T17:21:37.676Z,23.20
2018-04-18T17:24:05.249Z,23.20
2018-04-18T17:26:33.551Z,23.10
2018-04-18T17:29:01.025Z,23.10
2018-04-18T17:31:28.532Z,23.00
2018-04-18T17:33:57.096Z,22.90
2018-04-18T17:36:24.571Z,22.90
2018-04-18T17:38:52.282Z,22.80
2018-04-18T17:41:20.052Z,22.80
2018-04-18T17:43:47.524Z,22.70
2018-04-18T17:46:15.276Z,22.60
2018-04-18T17:48:42.774Z,22.50
2018-04-18T17:51:11.028Z,22.30
2018-04-18T17:53:38.500Z,22.30
2018-04-18T17:56:06.010Z,22.20
2018-04-18T17:58:33.532Z,22.10
2018-04-18T18:01:01.775Z,21.90
2018-04-18T18:03:29.268Z,22.00
2018-04-18T18:05:57.791Z,21.40
2018-04-18T18:08:25.264Z,21.60
2018-04-18T18:10:52.763Z,21.60
2018-04-18T18:13:21.028Z,21.30
2018-04-18T18:15:49.600Z,21.20
2018-04-18T18:18:17.095Z,21.20
2018-04-18T18:20:44.657Z,21.10
2018-04-18T18:23:12.131Z,21.00
2018-04-18T18:25:39.668Z,20.90
2018-04-18T18:28:07.144Z,20.80
2018-04-18T18:30:34.617Z,20.70
2018-04-18T18:33:02.109Z,20.60
2018-04-18T18:35:29.828Z,20.50
2018-04-18T18:37:57.402Z,20.40
2018-04-18T18:40:24.876Z,20.30
2018-04-18T18:42:52.356Z,20.20
2018-04-18T18:45:20.608Z,20.00
2018-04-18T18:47:48.099Z,19.90
2018-04-18T18:50:16.345Z,19.70
2018-04-18T18:52:43.886Z,19.70
2018-04-18T18:55:11.398Z,19.60
2018-04-18T18:57:39.638Z,17.20
2018-04-18T19:00:07.164Z,19.30
2018-04-18T19:02:34.659Z,19.30
2018-04-18T19:05:02.136Z,19.30
2018-04-18T19:20:25.195Z,19.60
2018-04-18T19:22:52.672Z,19.60
2018-04-18T19:25:20.195Z,19.50
2018-04-18T19:27:48.469Z,19.10
2018-04-18T19:30:16.708Z,18.90
2018-04-18T19:32:44.189Z,18.90
2018-04-18T19:35:11.791Z,18.80
2018-04-18T19:37:39.272Z,18.70
2018-04-18T19:40:06.923Z,18.60
2018-04-18T19:42:34.437Z,18.50
2018-04-18T19:45:02.956Z,18.40
2018-04-18T19:47:30.435Z,18.40
2018-04-18T19:49:57.928Z,18.40
2018-04-18T19:52:26.452Z,18.30
2018-04-18T19:54:53.923Z,18.30
2018-04-18T19:57:21.415Z,18.10
2018-04-18T19:59:48.888Z,18.20
2018-04-18T20:02:17.156Z,18.00
2018-04-18T20:04:45.680Z,18.00
2018-04-18T20:07:13.159Z,18.00
2018-04-18T20:09:40.635Z,17.90
2018-04-18T20:12:08.208Z,17.70
2018-04-18T20:14:36.456Z,17.30
2018-04-18T20:17:03.932Z,17.30
2018-04-18T20:19:31.749Z,17.10
2018-04-18T20:21:59.514Z,17.00
2018-04-18T20:24:27.028Z,16.80
2018-04-18T20:26:55.288Z,16.90
2018-04-18T20:29:22.765Z,16.80
2018-04-18T20:31:51.031Z,16.80
2018-04-18T20:34:18.532Z,16.80
2018-04-18T20:36:51.113Z,16.80
2018-04-18T20:39:18.616Z,16.80
2018-04-18T20:41:54.074Z,16.80
2018-04-18T20:44:22.335Z,16.50
2018-04-18T20:46:49.842Z,16.50
2018-04-18T20:49:17.368Z,16.50
2018-04-18T20:51:45.891Z,16.60
2018-04-18T20:54:13.442Z,16.60
2018-04-18T20:56:40.919Z,16.50
2018-04-18T20:59:08.416Z,16.40
2018-04-18T21:01:36.659Z,16.10
2018-04-18T21:04:04.136Z,16.10
2018-04-18T21:06:31.631Z,16.00
2018-04-18T21:08:59.116Z,16.00
2018-04-18T21:11:26.587Z,16.00
2018-04-18T21:13:54.079Z,16.00
2018-04-18T21:16:22.351Z,16.20
2018-04-18T21:18:50.596Z,16.20
2018-04-18T21:21:18.097Z,16.20
2018-04-18T21:23:46.336Z,16.20
2018-04-18T21:26:13.811Z,16.20
2018-04-18T21:28:41.304Z,16.20
2018-04-18T21:31:08.785Z,16.10
2018-04-18T21:33:36.260Z,16.20
2018-04-18T21:36:03.752Z,16.10
2018-04-18T21:38:32.039Z,16.10
2018-04-18T21:40:59.483Z,16.00
2018-04-18T21:43:27.760Z,15.90
2018-04-18T21:45:56.031Z,15.80
2018-04-18T21:48:24.348Z,15.70
2018-04-18T21:50:51.845Z,15.70
2018-04-18T21:53:19.319Z,15.60
2018-04-18T21:55:46.885Z,15.50
2018-04-18T21:58:15.187Z,15.50
2018-04-18T22:12:25.998Z,15.30
2018-04-18T22:15:07.498Z,15.30
2018-04-18T22:17:35.773Z,15.30
2018-04-18T22:20:04.015Z,15.10
2018-04-18T22:22:31.749Z,15.10
2018-04-18T22:24:59.448Z,14.90
2018-04-18T22:27:27.274Z,14.70
2018-04-18T22:30:12.856Z,14.60
2018-04-18T22:32:40.333Z,14.50
2018-04-18T22:35:07.814Z,14.40
2018-04-18T22:37:35.307Z,14.30
2018-04-18T22:40:02.780Z,14.70
2018-04-18T22:42:30.547Z,14.40
2018-04-18T22:44:58.264Z,14.60
2018-04-18T22:47:26.540Z,14.70
2018-04-18T22:49:54.791Z,15.00
2018-04-18T22:52:22.529Z,15.00
2018-04-18T22:54:50.020Z,15.20
2018-04-18T22:57:17.534Z,15.70
2018-04-18T22:59:45.061Z,16.20
2018-04-18T23:02:13.335Z,16.10
2018-04-18T23:04:41.155Z,16.20
2018-04-18T23:07:08.903Z,16.40
2018-04-18T23:09:36.378Z,16.50
2018-04-18T23:12:03.851Z,16.50
2018-04-18T23:14:32.399Z,16.60
2018-04-18T23:16:59.875Z,16.60
2018-04-18T23:19:27.351Z,16.60
2018-04-18T23:21:54.929Z,16.70
2018-04-18T23:24:23.203Z,16.80
2018-04-18T23:26:51.448Z,16.70
2018-04-18T23:29:19.291Z,16.70
2018-04-18T23:31:46.812Z,16.70
2018-04-18T23:34:15.088Z,16.50
2018-04-18T23:36:43.604Z,16.60
2018-04-18T23:39:11.091Z,16.60
2018-04-18T23:41:38.568Z,16.60
2018-04-18T23:44:06.177Z,16.60
2018-04-18T23:46:33.944Z,16.60
2018-04-18T23:49:01.647Z,16.50
2018-04-18T23:51:29.576Z,16.50
2018-04-18T23:53:57.056Z,16.40
2018-04-18T23:56:24.532Z,16.40
2018-04-18T23:58:52.180Z,16.40
